sensor_id;sensor_type;location;lat;lon;timestamp;noise_LAeq;noise_LA_min;noise_LA_max;noise_LA01;noise_LA95
47962;Laerm;33723;50.928;6.960;2023-01-19T06:03:53;68.15;53.02;80.92;;
47962;Laerm;33723;50.928;6.960;2023-01-19T06:06:19;69.63;58.70;75.56;;
47962;Laerm;33723;50.928;6.960;2023-01-19T06:08:44;71.27;56.18;78.81;;
47962;Laerm;33723;50.928;6.960;2023-01-19T06:11:10;71.87;56.50;79.33;;
47962;Laerm;33723;50.928;6.960;2023-01-19T06:13:35;70.66;56.49;78.20;;
47962;Laerm;33723;50.928;6.960;2023-01-19T06:16:00;69.57;55.16;77.34;;
47962;Laerm;33723;50.928;6.960;2023-01-19T06:18:26;70.70;59.69;78.43;;
47962;Laerm;33723;50.928;6.960;2023-01-19T06:20:52;69.73;57.72;78.54;;
47962;Laerm;33723;50.928;6.960;2023-01-19T06:23:23;67.75;55.93;76.32;;
47962;Laerm;33723;50.928;6.960;2023-01-19T06:25:48;71.43;57.80;77.54;;
47962;Laerm;33723;50.928;6.960;2023-01-19T06:28:13;68.88;57.73;75.86;;
47962;Laerm;33723;50.928;6.960;2023-01-19T06:30:39;69.88;55.22;79.02;;
47962;Laerm;33723;50.928;6.960;2023-01-19T06:33:04;69.82;57.49;82.63;;
47962;Laerm;33723;50.928;6.960;2023-01-19T06:35:29;70.70;58.74;78.32;;
47962;Laerm;33723;50.928;6.960;2023-01-19T06:37:55;70.56;58.67;79.09;;
47962;Laerm;33723;50.928;6.960;2023-01-19T06:40:20;69.03;56.11;74.89;;
47962;Laerm;33723;50.928;6.960;2023-01-19T06:42:45;70.52;56.23;77.29;;
47962;Laerm;33723;50.928;6.960;2023-01-19T06:45:12;70.33;55.98;80.19;;
47962;Laerm;33723;50.928;6.960;2023-01-19T06:47:37;69.26;57.71;77.15;;
47962;Laerm;33723;50.928;6.960;2023-01-19T06:50:02;71.59;59.26;79.04;;
47962;Laerm;33723;50.928;6.960;2023-01-19T06:52:28;70.58;60.31;80.63;;
47962;Laerm;33723;50.928;6.960;2023-01-19T06:54:53;70.37;59.05;76.58;;
47962;Laerm;33723;50.928;6.960;2023-01-19T06:57:18;70.17;58.62;85.03;;
47962;Laerm;33723;50.928;6.960;2023-01-19T06:59:43;70.56;57.28;78.33;;
47962;Laerm;33723;50.928;6.960;2023-01-19T07:02:09;71.03;57.40;77.68;;
47962;Laerm;33723;50.928;6.960;2023-01-19T07:04:35;70.90;55.80;79.25;;
47962;Laerm;33723;50.928;6.960;2023-01-19T07:07:00;69.78;55.38;75.28;;
47962;Laerm;33723;50.928;6.960;2023-01-19T07:09:26;72.13;55.14;85.20;;
47962;Laerm;33723;50.928;6.960;2023-01-19T07:11:52;71.69;57.57;78.86;;
47962;Laerm;33723;50.928;6.960;2023-01-19T07:14:17;69.53;55.10;76.44;;
47962;Laerm;33723;50.928;6.960;2023-01-19T07:16:43;69.66;56.02;75.77;;
47962;Laerm;33723;50.928;6.960;2023-01-19T07:19:08;69.20;56.24;77.00;;
47962;Laerm;33723;50.928;6.960;2023-01-19T07:21:35;70.06;57.08;78.39;;
47962;Laerm;33723;50.928;6.960;2023-01-19T07:24:00;70.29;56.83;77.57;;
47962;Laerm;33723;50.928;6.960;2023-01-19T07:26:25;68.83;55.20;76.85;;
47962;Laerm;33723;50.928;6.960;2023-01-19T07:28:51;68.14;57.16;79.57;;
47962;Laerm;33723;50.928;6.960;2023-01-19T07:31:17;71.92;57.46;88.78;;
47962;Laerm;33723;50.928;6.960;2023-01-19T07:33:43;70.40;56.37;78.57;;
47962;Laerm;33723;50.928;6.960;2023-01-19T07:36:08;69.45;55.05;76.73;;
47962;Laerm;33723;50.928;6.960;2023-01-19T07:38:34;71.52;58.39;88.86;;
47962;Laerm;33723;50.928;6.960;2023-01-19T07:40:59;71.55;60.39;82.24;;
47962;Laerm;33723;50.928;6.960;2023-01-19T07:43:25;70.22;56.04;77.44;;
47962;Laerm;33723;50.928;6.960;2023-01-19T07:45:50;72.21;56.26;81.01;;
47962;Laerm;33723;50.928;6.960;2023-01-19T07:48:16;70.60;55.94;76.41;;
47962;Laerm;33723;50.928;6.960;2023-01-19T07:50:41;70.17;57.96;78.88;;
47962;Laerm;33723;50.928;6.960;2023-01-19T07:53:07;69.53;57.44;77.51;;
47962;Laerm;33723;50.928;6.960;2023-01-19T07:55:33;70.57;56.81;78.90;;
47962;Laerm;33723;50.928;6.960;2023-01-19T07:57:58;70.08;57.30;80.94;;
47962;Laerm;33723;50.928;6.960;2023-01-19T08:00:23;70.09;59.88;76.76;;
47962;Laerm;33723;50.928;6.960;2023-01-19T08:02:52;70.84;58.36;79.78;;
47962;Laerm;33723;50.928;6.960;2023-01-19T08:05:22;71.57;56.43;81.90;;
47962;Laerm;33723;50.928;6.960;2023-01-19T08:07:47;69.32;56.26;76.22;;
47962;Laerm;33723;50.928;6.960;2023-01-19T08:10:13;70.60;54.62;77.36;;
47962;Laerm;33723;50.928;6.960;2023-01-19T08:12:39;68.65;55.57;78.84;;
47962;Laerm;33723;50.928;6.960;2023-01-19T08:15:06;70.19;56.63;84.38;;
47962;Laerm;33723;50.928;6.960;2023-01-19T08:17:31;69.15;55.47;78.60;;
47962;Laerm;33723;50.928;6.960;2023-01-19T08:19:56;70.82;58.89;77.31;;
47962;Laerm;33723;50.928;6.960;2023-01-19T08:22:22;70.17;59.41;89.89;;
47962;Laerm;33723;50.928;6.960;2023-01-19T08:24:47;71.34;60.62;82.75;;
47962;Laerm;33723;50.928;6.960;2023-01-19T08:27:12;69.94;58.73;82.70;;
47962;Laerm;33723;50.928;6.960;2023-01-19T08:29:37;68.57;58.48;76.26;;
47962;Laerm;33723;50.928;6.960;2023-01-19T08:32:03;71.86;60.83;78.64;;
47962;Laerm;33723;50.928;6.960;2023-01-19T08:34:28;69.35;56.77;76.32;;
47962;Laerm;33723;50.928;6.960;2023-01-19T08:36:57;69.94;57.26;79.91;;
47962;Laerm;33723;50.928;6.960;2023-01-19T08:39:22;70.36;57.15;80.75;;
47962;Laerm;33723;50.928;6.960;2023-01-19T08:41:51;66.50;52.85;78.27;;
47962;Laerm;33723;50.928;6.960;2023-01-19T08:44:16;68.05;53.44;82.37;;
47962;Laerm;33723;50.928;6.960;2023-01-19T08:46:42;67.01;52.84;76.40;;
47962;Laerm;33723;50.928;6.960;2023-01-19T08:49:07;67.52;54.87;81.36;;
47962;Laerm;33723;50.928;6.960;2023-01-19T08:51:33;67.82;54.07;80.66;;
47962;Laerm;33723;50.928;6.960;2023-01-19T08:53:59;70.36;58.13;78.77;;
47962;Laerm;33723;50.928;6.960;2023-01-19T08:56:24;70.70;55.61;85.78;;
47962;Laerm;33723;50.928;6.960;2023-01-19T08:58:49;68.04;54.75;76.91;;
47962;Laerm;33723;50.928;6.960;2023-01-19T09:01:14;71.19;58.89;85.41;;
47962;Laerm;33723;50.928;6.960;2023-01-19T09:03:44;68.40;52.94;76.62;;
47962;Laerm;33723;50.928;6.960;2023-01-19T09:06:10;67.57;52.55;80.85;;
47962;Laerm;33723;50.928;6.960;2023-01-19T09:08:36;68.86;51.33;78.86;;
47962;Laerm;33723;50.928;6.960;2023-01-19T09:11:01;66.92;54.78;77.26;;
47962;Laerm;33723;50.928;6.960;2023-01-19T09:13:26;68.59;57.60;77.58;;
47962;Laerm;33723;50.928;6.960;2023-01-19T09:15:52;69.88;58.84;83.79;;
47962;Laerm;33723;50.928;6.960;2023-01-19T09:18:18;68.51;56.06;75.49;;
47962;Laerm;33723;50.928;6.960;2023-01-19T09:20:44;67.07;52.42;76.08;;
47962;Laerm;33723;50.928;6.960;2023-01-19T09:23:10;70.32;52.36;78.66;;
47962;Laerm;33723;50.928;6.960;2023-01-19T09:25:36;67.41;52.47;77.96;;
47962;Laerm;33723;50.928;6.960;2023-01-19T09:28:03;67.13;53.83;75.67;;
47962;Laerm;33723;50.928;6.960;2023-01-19T09:30:28;66.75;51.75;75.68;;
47962;Laerm;33723;50.928;6.960;2023-01-19T09:32:53;67.14;53.12;75.67;;
47962;Laerm;33723;50.928;6.960;2023-01-19T09:35:18;67.91;53.59;77.57;;
47962;Laerm;33723;50.928;6.960;2023-01-19T09:37:45;67.64;56.97;75.10;;
47962;Laerm;33723;50.928;6.960;2023-01-19T09:40:11;67.77;53.64;78.47;;
47962;Laerm;33723;50.928;6.960;2023-01-19T09:42:44;69.71;55.54;83.00;;
47962;Laerm;33723;50.928;6.960;2023-01-19T09:45:57;68.73;50.53;92.94;;
47962;Laerm;33723;50.928;6.960;2023-01-19T09:47:57;66.76;54.65;75.67;;
47962;Laerm;33723;50.928;6.960;2023-01-19T09:50:26;66.03;55.30;74.09;;
47962;Laerm;33723;50.928;6.960;2023-01-19T09:52:57;69.69;56.80;80.61;;
47962;Laerm;33723;50.928;6.960;2023-01-19T09:55:26;68.93;55.05;79.12;;
47962;Laerm;33723;50.928;6.960;2023-01-19T09:57:52;66.21;54.43;75.22;;
47962;Laerm;33723;50.928;6.960;2023-01-19T10:00:17;68.49;54.76;78.21;;
47962;Laerm;33723;50.928;6.960;2023-01-19T10:05:18;67.62;54.33;77.44;;
47962;Laerm;33723;50.928;6.960;2023-01-19T10:10:53;69.26;56.73;79.52;;
47962;Laerm;33723;50.928;6.960;2023-01-19T10:18:21;67.63;52.34;75.70;;
47962;Laerm;33723;50.928;6.960;2023-01-19T10:20:50;69.83;54.87;76.46;;
47962;Laerm;33723;50.928;6.960;2023-01-19T10:26:05;68.28;50.95;77.06;;
47962;Laerm;33723;50.928;6.960;2023-01-19T10:28:32;70.30;57.12;78.32;;
47962;Laerm;33723;50.928;6.960;2023-01-19T10:30:57;68.90;53.39;76.57;;
47962;Laerm;33723;50.928;6.960;2023-01-19T10:33:22;70.30;56.01;81.05;;
47962;Laerm;33723;50.928;6.960;2023-01-19T10:35:48;69.45;55.82;79.53;;
47962;Laerm;33723;50.928;6.960;2023-01-19T10:38:14;66.76;55.42;75.67;;
47962;Laerm;33723;50.928;6.960;2023-01-19T10:41:04;69.11;53.77;78.54;;
47962;Laerm;33723;50.928;6.960;2023-01-19T10:43:34;68.37;54.68;79.21;;
47962;Laerm;33723;50.928;6.960;2023-01-19T10:46:23;69.29;55.52;82.86;;
47962;Laerm;33723;50.928;6.960;2023-01-19T10:48:49;67.86;55.12;75.63;;
47962;Laerm;33723;50.928;6.960;2023-01-19T10:51:15;65.67;52.28;75.93;;
47962;Laerm;33723;50.928;6.960;2023-01-19T10:54:00;69.29;59.59;76.12;;
47962;Laerm;33723;50.928;6.960;2023-01-19T10:56:27;68.84;55.39;77.50;;
47962;Laerm;33723;50.928;6.960;2023-01-19T10:58:53;69.03;54.57;78.87;;
47962;Laerm;33723;50.928;6.960;2023-01-19T11:03:44;67.46;57.33;81.83;;
47962;Laerm;33723;50.928;6.960;2023-01-19T11:08:37;69.74;55.15;80.46;;
47962;Laerm;33723;50.928;6.960;2023-01-19T11:11:03;67.40;55.44;72.97;;
47962;Laerm;33723;50.928;6.960;2023-01-19T11:13:29;68.94;54.44;79.53;;
47962;Laerm;33723;50.928;6.960;2023-01-19T11:15:58;69.24;55.31;78.92;;
47962;Laerm;33723;50.928;6.960;2023-01-19T11:18:29;67.66;51.91;78.03;;
47962;Laerm;33723;50.928;6.960;2023-01-19T11:20:55;69.69;54.57;77.46;;
47962;Laerm;33723;50.928;6.960;2023-01-19T11:23:26;69.28;54.50;77.87;;
47962;Laerm;33723;50.928;6.960;2023-01-19T11:25:52;69.37;53.32;81.77;;
47962;Laerm;33723;50.928;6.960;2023-01-19T11:28:28;69.31;53.45;77.42;;
47962;Laerm;33723;50.928;6.960;2023-01-19T11:30:59;68.66;54.31;76.67;;
47962;Laerm;33723;50.928;6.960;2023-01-19T11:33:31;68.38;53.49;75.76;;
47962;Laerm;33723;50.928;6.960;2023-01-19T11:36:01;66.53;52.02;75.50;;
47962;Laerm;33723;50.928;6.960;2023-01-19T11:38:27;67.38;51.49;74.32;;
47962;Laerm;33723;50.928;6.960;2023-01-19T11:40:53;68.78;53.98;80.41;;
47962;Laerm;33723;50.928;6.960;2023-01-19T11:43:20;66.71;55.82;76.02;;
47962;Laerm;33723;50.928;6.960;2023-01-19T11:45:46;65.60;51.22;72.32;;
47962;Laerm;33723;50.928;6.960;2023-01-19T11:48:14;67.92;53.93;76.27;;
47962;Laerm;33723;50.928;6.960;2023-01-19T11:50:42;67.97;53.70;78.12;;
47962;Laerm;33723;50.928;6.960;2023-01-19T11:53:13;68.06;52.88;79.71;;
47962;Laerm;33723;50.928;6.960;2023-01-19T11:58:15;67.09;53.96;75.75;;
47962;Laerm;33723;50.928;6.960;2023-01-19T12:00:57;65.94;52.30;75.12;;
47962;Laerm;33723;50.928;6.960;2023-01-19T12:03:33;68.85;52.26;82.68;;
47962;Laerm;33723;50.928;6.960;2023-01-19T12:06:09;67.02;51.68;80.28;;
47962;Laerm;33723;50.928;6.960;2023-01-19T12:08:43;68.61;52.84;78.79;;
47962;Laerm;33723;50.928;6.960;2023-01-19T12:11:10;64.50;51.38;78.41;;
47962;Laerm;33723;50.928;6.960;2023-01-19T12:13:38;70.99;54.61;82.78;;
47962;Laerm;33723;50.928;6.960;2023-01-19T12:16:06;68.85;55.58;76.06;;
47962;Laerm;33723;50.928;6.960;2023-01-19T12:18:38;69.00;54.19;84.26;;
47962;Laerm;33723;50.928;6.960;2023-01-19T12:21:05;67.87;55.58;77.01;;
47962;Laerm;33723;50.928;6.960;2023-01-19T12:28:46;69.50;53.51;78.97;;
47962;Laerm;33723;50.928;6.960;2023-01-19T12:31:15;68.66;53.90;76.84;;
47962;Laerm;33723;50.928;6.960;2023-01-19T12:33:41;65.59;51.97;74.67;;
47962;Laerm;33723;50.928;6.960;2023-01-19T12:38:45;66.30;53.35;79.14;;
47962;Laerm;33723;50.928;6.960;2023-01-19T12:43:39;69.02;52.95;79.45;;
47962;Laerm;33723;50.928;6.960;2023-01-19T12:46:17;68.00;54.92;79.56;;
47962;Laerm;33723;50.928;6.960;2023-01-19T12:48:42;67.14;55.88;75.49;;
47962;Laerm;33723;50.928;6.960;2023-01-19T12:51:07;67.66;51.94;76.45;;
47962;Laerm;33723;50.928;6.960;2023-01-19T12:53:33;66.99;53.17;77.76;;
47962;Laerm;33723;50.928;6.960;2023-01-19T12:55:59;68.15;54.96;79.12;;
47962;Laerm;33723;50.928;6.960;2023-01-19T12:58:25;68.58;53.97;84.60;;
47962;Laerm;33723;50.928;6.960;2023-01-19T13:01:12;67.13;53.75;77.62;;
47962;Laerm;33723;50.928;6.960;2023-01-19T13:03:43;65.74;54.05;83.85;;
47962;Laerm;33723;50.928;6.960;2023-01-19T13:06:08;67.71;49.06;80.53;;
47962;Laerm;33723;50.928;6.960;2023-01-19T13:11:18;67.06;53.65;74.04;;
47962;Laerm;33723;50.928;6.960;2023-01-19T13:18:47;65.68;50.04;82.77;;
47962;Laerm;33723;50.928;6.960;2023-01-19T13:23:57;66.54;51.03;77.94;;
47962;Laerm;33723;50.928;6.960;2023-01-19T13:26:24;65.62;53.51;73.65;;
47962;Laerm;33723;50.928;6.960;2023-01-19T13:28:52;66.86;56.25;78.84;;
47962;Laerm;33723;50.928;6.960;2023-01-19T13:31:18;67.45;54.69;76.06;;
47962;Laerm;33723;50.928;6.960;2023-01-19T13:36:15;66.88;52.17;83.25;;
47962;Laerm;33723;50.928;6.960;2023-01-19T13:38:42;68.42;55.95;78.81;;
47962;Laerm;33723;50.928;6.960;2023-01-19T13:41:07;64.83;52.64;79.41;;
47962;Laerm;33723;50.928;6.960;2023-01-19T13:43:35;68.36;56.22;77.78;;
47962;Laerm;33723;50.928;6.960;2023-01-19T13:46:01;66.75;53.50;74.60;;
47962;Laerm;33723;50.928;6.960;2023-01-19T13:48:28;65.35;54.00;77.22;;
47962;Laerm;33723;50.928;6.960;2023-01-19T13:50:59;68.36;56.41;83.25;;
47962;Laerm;33723;50.928;6.960;2023-01-19T13:53:25;68.61;54.52;90.11;;
47962;Laerm;33723;50.928;6.960;2023-01-19T13:56:06;67.11;54.21;75.87;;
47962;Laerm;33723;50.928;6.960;2023-01-19T13:58:31;69.45;54.20;83.01;;
47962;Laerm;33723;50.928;6.960;2023-01-19T14:00:57;68.08;53.15;88.24;;
47962;Laerm;33723;50.928;6.960;2023-01-19T14:03:22;67.10;54.74;80.21;;
47962;Laerm;33723;50.928;6.960;2023-01-19T14:05:48;66.40;54.28;75.71;;
47962;Laerm;33723;50.928;6.960;2023-01-19T14:08:15;67.58;55.26;75.56;;
47962;Laerm;33723;50.928;6.960;2023-01-19T14:10:43;67.40;56.49;76.83;;
47962;Laerm;33723;50.928;6.960;2023-01-19T14:13:23;67.66;53.55;77.26;;
47962;Laerm;33723;50.928;6.960;2023-01-19T14:15:50;66.60;54.04;75.72;;
47962;Laerm;33723;50.928;6.960;2023-01-19T14:23:35;65.56;55.55;75.57;;
47962;Laerm;33723;50.928;6.960;2023-01-19T14:26:00;68.88;56.79;89.71;;
47962;Laerm;33723;50.928;6.960;2023-01-19T14:33:35;67.36;53.82;74.79;;
47962;Laerm;33723;50.928;6.960;2023-01-19T14:36:08;67.38;54.43;76.38;;
47962;Laerm;33723;50.928;6.960;2023-01-19T14:38:33;69.03;54.18;89.02;;
47962;Laerm;33723;50.928;6.960;2023-01-19T14:40:59;67.25;57.39;76.34;;
47962;Laerm;33723;50.928;6.960;2023-01-19T14:43:24;67.82;54.29;77.01;;
47962;Laerm;33723;50.928;6.960;2023-01-19T14:45:52;67.98;55.87;78.69;;
47962;Laerm;33723;50.928;6.960;2023-01-19T14:48:18;66.60;53.70;77.66;;
47962;Laerm;33723;50.928;6.960;2023-01-19T14:50:45;68.11;52.45;76.65;;
47962;Laerm;33723;50.928;6.960;2023-01-19T14:53:15;65.24;53.23;72.04;;
47962;Laerm;33723;50.928;6.960;2023-01-19T14:55:48;64.93;52.59;75.30;;
47962;Laerm;33723;50.928;6.960;2023-01-19T14:58:15;65.87;53.22;74.39;;
47962;Laerm;33723;50.928;6.960;2023-01-19T15:00:41;67.86;55.46;78.30;;
47962;Laerm;33723;50.928;6.960;2023-01-19T15:03:07;66.25;54.29;74.93;;
47962;Laerm;33723;50.928;6.960;2023-01-19T15:05:37;65.93;54.93;75.18;;
47962;Laerm;33723;50.928;6.960;2023-01-19T15:08:03;68.83;55.69;88.89;;
47962;Laerm;33723;50.928;6.960;2023-01-19T15:10:28;66.93;54.75;75.81;;
47962;Laerm;33723;50.928;6.960;2023-01-19T15:12:54;65.69;54.22;78.62;;
47962;Laerm;33723;50.928;6.960;2023-01-19T15:15:22;68.08;54.31;88.93;;
47962;Laerm;33723;50.928;6.960;2023-01-19T15:17:49;67.69;55.39;78.33;;
47962;Laerm;33723;50.928;6.960;2023-01-19T15:20:16;65.46;53.49;75.01;;
47962;Laerm;33723;50.928;6.960;2023-01-19T15:22:42;67.31;52.74;75.60;;
47962;Laerm;33723;50.928;6.960;2023-01-19T15:25:10;67.37;56.69;74.24;;
47962;Laerm;33723;50.928;6.960;2023-01-19T15:27:36;65.35;53.76;73.09;;
47962;Laerm;33723;50.928;6.960;2023-01-19T15:30:01;66.75;57.99;75.64;;
47962;Laerm;33723;50.928;6.960;2023-01-19T15:32:26;65.11;55.16;71.51;;
47962;Laerm;33723;50.928;6.960;2023-01-19T15:34:52;66.18;53.78;74.21;;
47962;Laerm;33723;50.928;6.960;2023-01-19T15:37:17;67.22;54.37;75.46;;
47962;Laerm;33723;50.928;6.960;2023-01-19T15:39:42;66.82;56.43;86.26;;
47962;Laerm;33723;50.928;6.960;2023-01-19T15:42:11;66.41;55.08;77.36;;
47962;Laerm;33723;50.928;6.960;2023-01-19T15:44:38;66.29;51.41;72.38;;
47962;Laerm;33723;50.928;6.960;2023-01-19T15:47:03;66.17;54.01;80.05;;
47962;Laerm;33723;50.928;6.960;2023-01-19T15:49:28;68.29;53.60;78.20;;
47962;Laerm;33723;50.928;6.960;2023-01-19T15:51:55;67.20;52.80;75.88;;
47962;Laerm;33723;50.928;6.960;2023-01-19T15:54:20;66.02;53.10;75.62;;
47962;Laerm;33723;50.928;6.960;2023-01-19T15:56:45;65.68;53.25;74.35;;
47962;Laerm;33723;50.928;6.960;2023-01-19T15:59:10;67.02;54.07;74.34;;
47962;Laerm;33723;50.928;6.960;2023-01-19T16:01:36;66.08;55.06;73.06;;
47962;Laerm;33723;50.928;6.960;2023-01-19T16:04:02;65.44;55.44;75.97;;
47962;Laerm;33723;50.928;6.960;2023-01-19T16:06:28;65.14;53.58;73.11;;
47962;Laerm;33723;50.928;6.960;2023-01-19T16:08:54;66.00;54.39;74.99;;
47962;Laerm;33723;50.928;6.960;2023-01-19T16:11:24;66.43;56.75;74.42;;
47962;Laerm;33723;50.928;6.960;2023-01-19T16:13:49;66.39;57.04;73.61;;
47962;Laerm;33723;50.928;6.960;2023-01-19T16:16:19;66.30;52.25;77.09;;
47962;Laerm;33723;50.928;6.960;2023-01-19T16:18:44;66.20;54.20;71.96;;
47962;Laerm;33723;50.928;6.960;2023-01-19T16:21:10;67.79;57.03;78.42;;
47962;Laerm;33723;50.928;6.960;2023-01-19T16:23:35;65.71;53.96;72.92;;
47962;Laerm;33723;50.928;6.960;2023-01-19T16:26:01;67.47;53.16;74.80;;
47962;Laerm;33723;50.928;6.960;2023-01-19T16:28:32;67.49;54.76;75.48;;
47962;Laerm;33723;50.928;6.960;2023-01-19T16:30:57;65.05;53.17;75.09;;
47962;Laerm;33723;50.928;6.960;2023-01-19T16:33:23;64.89;53.76;72.50;;
47962;Laerm;33723;50.928;6.960;2023-01-19T16:35:48;64.42;52.28;70.01;;
47962;Laerm;33723;50.928;6.960;2023-01-19T16:38:13;64.89;52.71;75.59;;
47962;Laerm;33723;50.928;6.960;2023-01-19T16:40:38;67.19;55.17;78.72;;
47962;Laerm;33723;50.928;6.960;2023-01-19T16:43:04;65.62;55.37;72.36;;
47962;Laerm;33723;50.928;6.960;2023-01-19T16:45:29;65.29;54.58;74.74;;
47962;Laerm;33723;50.928;6.960;2023-01-19T16:47:54;65.22;55.03;71.84;;
47962;Laerm;33723;50.928;6.960;2023-01-19T16:50:19;65.03;53.44;73.96;;
47962;Laerm;33723;50.928;6.960;2023-01-19T16:52:45;65.39;52.39;72.27;;
47962;Laerm;33723;50.928;6.960;2023-01-19T16:55:10;65.61;53.93;75.21;;
47962;Laerm;33723;50.928;6.960;2023-01-19T16:57:36;64.64;53.65;74.06;;
47962;Laerm;33723;50.928;6.960;2023-01-19T17:00:03;64.12;51.13;72.09;;
47962;Laerm;33723;50.928;6.960;2023-01-19T17:02:29;65.73;54.15;74.94;;
47962;Laerm;33723;50.928;6.960;2023-01-19T17:04:54;66.60;52.65;81.00;;
47962;Laerm;33723;50.928;6.960;2023-01-19T17:07:20;65.21;52.50;71.98;;
47962;Laerm;33723;50.928;6.960;2023-01-19T17:09:45;65.95;56.09;74.19;;
47962;Laerm;33723;50.928;6.960;2023-01-19T17:12:10;65.13;54.21;72.22;;
47962;Laerm;33723;50.928;6.960;2023-01-19T17:14:37;64.80;51.59;75.38;;
47962;Laerm;33723;50.928;6.960;2023-01-19T17:17:02;65.45;54.97;72.27;;
47962;Laerm;33723;50.928;6.960;2023-01-19T17:19:28;66.25;54.44;77.79;;
47962;Laerm;33723;50.928;6.960;2023-01-19T17:21:53;64.89;52.02;73.83;;
47962;Laerm;33723;50.928;6.960;2023-01-19T17:24:18;65.32;52.77;75.86;;
47962;Laerm;33723;50.928;6.960;2023-01-19T17:26:44;63.48;51.73;72.44;;
47962;Laerm;33723;50.928;6.960;2023-01-19T17:29:12;64.17;52.70;72.44;;
47962;Laerm;33723;50.928;6.960;2023-01-19T17:31:37;64.82;55.34;73.77;;
47962;Laerm;33723;50.928;6.960;2023-01-19T17:34:03;64.72;52.78;76.03;;
47962;Laerm;33723;50.928;6.960;2023-01-19T17:36:29;63.49;50.76;71.88;;
47962;Laerm;33723;50.928;6.960;2023-01-19T17:38:56;63.93;53.07;74.74;;
47962;Laerm;33723;50.928;6.960;2023-01-19T17:41:28;64.87;54.40;77.96;;
47962;Laerm;33723;50.928;6.960;2023-01-19T17:43:54;65.10;50.92;72.06;;
47962;Laerm;33723;50.928;6.960;2023-01-19T17:46:21;63.74;50.73;71.44;;
47962;Laerm;33723;50.928;6.960;2023-01-19T17:48:53;65.69;53.71;74.81;;
47962;Laerm;33723;50.928;6.960;2023-01-19T17:51:19;66.74;51.33;76.69;;
47962;Laerm;33723;50.928;6.960;2023-01-19T17:53:46;64.20;53.22;70.26;;
47962;Laerm;33723;50.928;6.960;2023-01-19T17:56:12;65.32;50.56;77.02;;
47962;Laerm;33723;50.928;6.960;2023-01-19T17:58:38;65.51;52.68;76.80;;
47962;Laerm;33723;50.928;6.960;2023-01-19T18:01:11;64.51;54.37;73.73;;
47962;Laerm;33723;50.928;6.960;2023-01-19T18:03:37;65.32;54.97;74.90;;
47962;Laerm;33723;50.928;6.960;2023-01-19T18:06:02;64.73;53.14;77.12;;
47962;Laerm;33723;50.928;6.960;2023-01-19T18:08:27;66.42;49.95;91.17;;
47962;Laerm;33723;50.928;6.960;2023-01-19T18:10:53;63.92;50.58;74.31;;
47962;Laerm;33723;50.928;6.960;2023-01-19T18:13:18;64.47;53.47;73.30;;
47962;Laerm;33723;50.928;6.960;2023-01-19T18:15:44;63.42;52.63;75.69;;
47962;Laerm;33723;50.928;6.960;2023-01-19T18:18:09;64.42;50.15;75.54;;
47962;Laerm;33723;50.928;6.960;2023-01-19T18:20:34;64.84;50.27;73.72;;
47962;Laerm;33723;50.928;6.960;2023-01-19T18:23:03;62.89;51.87;73.76;;
47962;Laerm;33723;50.928;6.960;2023-01-19T18:25:29;64.32;50.83;74.83;;
47962;Laerm;33723;50.928;6.960;2023-01-19T18:27:54;66.09;51.62;75.56;;
47962;Laerm;33723;50.928;6.960;2023-01-19T18:30:19;63.13;52.14;76.77;;
47962;Laerm;33723;50.928;6.960;2023-01-19T18:32:45;61.62;47.72;71.88;;
47962;Laerm;33723;50.928;6.960;2023-01-19T18:35:10;62.49;46.71;71.51;;
47962;Laerm;33723;50.928;6.960;2023-01-19T18:37:36;63.90;46.45;82.63;;
47962;Laerm;33723;50.928;6.960;2023-01-19T18:40:01;64.24;49.88;75.12;;
47962;Laerm;33723;50.928;6.960;2023-01-19T18:42:28;63.25;51.45;74.16;;
47962;Laerm;33723;50.928;6.960;2023-01-19T18:44:53;63.57;47.32;74.32;;
47962;Laerm;33723;50.928;6.960;2023-01-19T18:47:18;62.85;48.36;75.16;;
47962;Laerm;33723;50.928;6.960;2023-01-19T18:49:44;66.10;50.15;85.80;;
47962;Laerm;33723;50.928;6.960;2023-01-19T18:52:09;63.37;45.01;73.87;;
47962;Laerm;33723;50.928;6.960;2023-01-19T18:54:34;64.49;51.50;74.70;;
47962;Laerm;33723;50.928;6.960;2023-01-19T18:56:59;63.85;51.43;72.28;;
47962;Laerm;33723;50.928;6.960;2023-01-19T18:59:25;62.97;49.12;74.30;;
47962;Laerm;33723;50.928;6.960;2023-01-19T19:01:51;63.53;52.19;75.24;;
47962;Laerm;33723;50.928;6.960;2023-01-19T19:04:17;62.72;48.66;70.56;;
47962;Laerm;33723;50.928;6.960;2023-01-19T19:06:42;64.24;50.52;72.53;;
47962;Laerm;33723;50.928;6.960;2023-01-19T19:09:08;63.98;48.85;73.02;;
47962;Laerm;33723;50.928;6.960;2023-01-19T19:11:33;65.05;48.02;74.66;;
47962;Laerm;33723;50.928;6.960;2023-01-19T19:13:59;63.52;50.34;75.24;;
47962;Laerm;33723;50.928;6.960;2023-01-19T19:16:25;60.85;48.41;69.33;;
47962;Laerm;33723;50.928;6.960;2023-01-19T19:18:50;64.14;52.07;75.62;;
47962;Laerm;33723;50.928;6.960;2023-01-19T19:21:16;61.69;48.83;71.10;;
47962;Laerm;33723;50.928;6.960;2023-01-19T19:23:41;63.38;50.60;73.66;;
47962;Laerm;33723;50.928;6.960;2023-01-19T19:26:08;62.67;49.83;78.69;;
47962;Laerm;33723;50.928;6.960;2023-01-19T19:28:34;63.75;48.39;74.64;;
47962;Laerm;33723;50.928;6.960;2023-01-19T19:31:07;68.38;47.38;93.07;;
47962;Laerm;33723;50.928;6.960;2023-01-19T19:33:33;62.72;44.90;76.89;;
47962;Laerm;33723;50.928;6.960;2023-01-19T19:35:59;64.47;46.15;79.87;;
47962;Laerm;33723;50.928;6.960;2023-01-19T19:38:24;62.38;45.39;74.51;;
47962;Laerm;33723;50.928;6.960;2023-01-19T19:40:50;59.88;43.94;70.87;;
47962;Laerm;33723;50.928;6.960;2023-01-19T19:43:18;63.33;47.24;72.79;;
47962;Laerm;33723;50.928;6.960;2023-01-19T19:45:43;64.86;51.73;73.22;;
47962;Laerm;33723;50.928;6.960;2023-01-19T19:48:08;62.93;49.29;71.58;;
47962;Laerm;33723;50.928;6.960;2023-01-19T19:50:34;60.63;48.36;72.02;;
47962;Laerm;33723;50.928;6.960;2023-01-19T19:52:59;61.76;49.42;73.93;;
47962;Laerm;33723;50.928;6.960;2023-01-19T19:55:24;60.82;47.20;72.35;;
47962;Laerm;33723;50.928;6.960;2023-01-19T19:57:50;63.38;51.33;74.36;;
47962;Laerm;33723;50.928;6.960;2023-01-19T20:00:16;64.66;54.64;73.41;;
47962;Laerm;33723;50.928;6.960;2023-01-19T20:02:42;62.15;47.50;75.43;;
47962;Laerm;33723;50.928;6.960;2023-01-19T20:05:07;60.87;48.21;71.56;;
47962;Laerm;33723;50.928;6.960;2023-01-19T20:07:32;63.47;45.39;72.25;;
47962;Laerm;33723;50.928;6.960;2023-01-19T20:09:58;64.61;50.03;81.74;;
47962;Laerm;33723;50.928;6.960;2023-01-19T20:12:23;63.32;49.72;70.72;;
47962;Laerm;33723;50.928;6.960;2023-01-19T20:14:48;60.95;46.02;72.54;;
47962;Laerm;33723;50.928;6.960;2023-01-19T20:17:14;60.30;48.58;69.89;;
47962;Laerm;33723;50.928;6.960;2023-01-19T20:19:39;60.90;46.52;72.08;;
47962;Laerm;33723;50.928;6.960;2023-01-19T20:22:05;64.00;54.92;72.35;;
47962;Laerm;33723;50.928;6.960;2023-01-19T20:24:31;61.60;49.41;69.93;;
47962;Laerm;33723;50.928;6.960;2023-01-19T20:26:56;63.99;48.94;73.74;;
47962;Laerm;33723;50.928;6.960;2023-01-19T20:29:21;61.08;49.12;68.54;;
47962;Laerm;33723;50.928;6.960;2023-01-19T20:31:51;63.25;47.81;71.52;;
47962;Laerm;33723;50.928;6.960;2023-01-19T20:34:17;63.06;45.36;73.65;;
47962;Laerm;33723;50.928;6.960;2023-01-19T20:36:43;61.74;48.31;71.92;;
47962;Laerm;33723;50.928;6.960;2023-01-19T20:39:13;61.75;44.11;70.56;;